sensor_id;sensor_type;location;lat;lon;timestamp;temperature;humidity
74822;DHT22;63353;48.702;8.884;2023-12-04T00:01:54;-6.30;99.90
74822;DHT22;63353;48.702;8.884;2023-12-04T00:04:20;-6.40;99.90
74822;DHT22;63353;48.702;8.884;2023-12-04T00:06:46;-6.40;99.90
74822;DHT22;63353;48.702;8.884;2023-12-04T00:09:12;-6.50;99.90
74822;DHT22;63353;48.702;8.884;2023-12-04T00:11:37;-6.60;99.90
74822;DHT22;63353;48.702;8.884;2023-12-04T00:14:03;-6.60;99.90
74822;DHT22;63353;48.702;8.884;2023-12-04T00:16:29;-6.70;99.90
74822;DHT22;63353;48.702;8.884;2023-12-04T00:18:54;-6.70;99.90
74822;DHT22;63353;48.702;8.884;2023-12-04T00:21:20;-6.70;99.90
74822;DHT22;63353;48.702;8.884;2023-12-04T00:23:45;-6.80;99.90
74822;DHT22;63353;48.702;8.884;2023-12-04T00:26:12;-6.80;99.90
74822;DHT22;63353;48.702;8.884;2023-12-04T00:28:38;-6.70;99.90
74822;DHT22;63353;48.702;8.884;2023-12-04T00:31:04;-6.60;99.90
74822;DHT22;63353;48.702;8.884;2023-12-04T00:33:30;-6.60;99.90
74822;DHT22;63353;48.702;8.884;2023-12-04T00:35:57;-6.40;99.90
74822;DHT22;63353;48.702;8.884;2023-12-04T00:38:23;-6.30;99.90
74822;DHT22;63353;48.702;8.884;2023-12-04T00:40:48;-6.20;99.90
74822;DHT22;63353;48.702;8.884;2023-12-04T00:43:14;-6.10;99.90
74822;DHT22;63353;48.702;8.884;2023-12-04T00:45:40;-6.10;99.90
74822;DHT22;63353;48.702;8.884;2023-12-04T00:48:05;-6.10;99.90
74822;DHT22;63353;48.702;8.884;2023-12-04T00:50:31;-6.10;99.90
74822;DHT22;63353;48.702;8.884;2023-12-04T00:52:57;-6.20;99.90
74822;DHT22;63353;48.702;8.884;2023-12-04T00:55:22;-6.20;99.90
74822;DHT22;63353;48.702;8.884;2023-12-04T00:57:48;-6.30;99.90
74822;DHT22;63353;48.702;8.884;2023-12-04T01:00:14;-6.40;99.90
74822;DHT22;63353;48.702;8.884;2023-12-04T01:02:40;-6.30;99.90
74822;DHT22;63353;48.702;8.884;2023-12-04T01:05:06;-6.20;99.90
74822;DHT22;63353;48.702;8.884;2023-12-04T01:07:31;-6.20;99.90
74822;DHT22;63353;48.702;8.884;2023-12-04T01:09:57;-6.30;99.90
74822;DHT22;63353;48.702;8.884;2023-12-04T01:12:23;-6.30;99.90
74822;DHT22;63353;48.702;8.884;2023-12-04T01:14:48;-6.40;99.90
74822;DHT22;63353;48.702;8.884;2023-12-04T01:17:14;-6.40;99.90
74822;DHT22;63353;48.702;8.884;2023-12-04T01:19:40;-6.60;99.90
74822;DHT22;63353;48.702;8.884;2023-12-04T01:22:05;-6.70;99.90
74822;DHT22;63353;48.702;8.884;2023-12-04T01:24:31;-6.70;99.90
74822;DHT22;63353;48.702;8.884;2023-12-04T01:26:57;-6.80;99.90
74822;DHT22;63353;48.702;8.884;2023-12-04T01:29:22;-6.80;99.90
74822;DHT22;63353;48.702;8.884;2023-12-04T01:31:48;-6.90;99.90
74822;DHT22;63353;48.702;8.884;2023-12-04T01:34:14;-6.90;99.90
74822;DHT22;63353;48.702;8.884;2023-12-04T01:36:42;-6.90;99.90
74822;DHT22;63353;48.702;8.884;2023-12-04T01:39:08;-7.00;99.90
74822;DHT22;63353;48.702;8.884;2023-12-04T01:41:34;-7.00;99.90
74822;DHT22;63353;48.702;8.884;2023-12-04T01:43:59;-7.10;99.90
74822;DHT22;63353;48.702;8.884;2023-12-04T01:46:25;-7.00;99.90
74822;DHT22;63353;48.702;8.884;2023-12-04T01:48:52;-7.00;99.90
74822;DHT22;63353;48.702;8.884;2023-12-04T01:51:19;-6.90;99.90
74822;DHT22;63353;48.702;8.884;2023-12-04T01:53:46;-6.90;99.90
74822;DHT22;63353;48.702;8.884;2023-12-04T01:56:13;-7.00;99.90
74822;DHT22;63353;48.702;8.884;2023-12-04T01:58:40;-6.80;99.90
74822;DHT22;63353;48.702;8.884;2023-12-04T02:01:06;-6.60;99.90
74822;DHT22;63353;48.702;8.884;2023-12-04T02:03:32;-6.50;99.90
74822;DHT22;63353;48.702;8.884;2023-12-04T02:06:02;-6.50;99.90
74822;DHT22;63353;48.702;8.884;2023-12-04T02:08:29;-6.50;99.90
74822;DHT22;63353;48.702;8.884;2023-12-04T02:10:55;-6.60;99.90
74822;DHT22;63353;48.702;8.884;2023-12-04T02:13:21;-6.60;99.90
74822;DHT22;63353;48.702;8.884;2023-12-04T02:15:49;-6.80;99.90
74822;DHT22;63353;48.702;8.884;2023-12-04T02:18:17;-6.80;99.90
74822;DHT22;63353;48.702;8.884;2023-12-04T02:20:43;-6.80;99.90
74822;DHT22;63353;48.702;8.884;2023-12-04T02:23:09;-6.70;99.90
74822;DHT22;63353;48.702;8.884;2023-12-04T02:25:34;-6.50;99.90
74822;DHT22;63353;48.702;8.884;2023-12-04T02:28:03;-6.40;99.90
74822;DHT22;63353;48.702;8.884;2023-12-04T02:30:30;-6.30;99.90
74822;DHT22;63353;48.702;8.884;2023-12-04T02:32:58;-6.30;99.90
74822;DHT22;63353;48.702;8.884;2023-12-04T02:35:28;-6.40;99.90
74822;DHT22;63353;48.702;8.884;2023-12-04T02:37:56;-6.50;99.90
74822;DHT22;63353;48.702;8.884;2023-12-04T02:40:24;-6.50;99.90
74822;DHT22;63353;48.702;8.884;2023-12-04T02:42:50;-6.60;99.90
74822;DHT22;63353;48.702;8.884;2023-12-04T02:45:18;-6.50;99.90
74822;DHT22;63353;48.702;8.884;2023-12-04T02:47:43;-6.40;99.90
74822;DHT22;63353;48.702;8.884;2023-12-04T02:50:09;-6.30;99.90
74822;DHT22;63353;48.702;8.884;2023-12-04T02:52:35;-6.30;99.90
74822;DHT22;63353;48.702;8.884;2023-12-04T02:55:00;-6.30;99.90
74822;DHT22;63353;48.702;8.884;2023-12-04T02:57:26;-6.40;99.90
74822;DHT22;63353;48.702;8.884;2023-12-04T02:59:52;-6.50;99.90
74822;DHT22;63353;48.702;8.884;2023-12-04T03:02:18;-6.60;99.90
74822;DHT22;63353;48.702;8.884;2023-12-04T03:04:43;-6.70;99.90
74822;DHT22;63353;48.702;8.884;2023-12-04T03:07:09;-6.70;99.90
74822;DHT22;63353;48.702;8.884;2023-12-04T03:09:34;-6.70;99.90
74822;DHT22;63353;48.702;8.884;2023-12-04T03:12:00;-6.80;99.90
74822;DHT22;63353;48.702;8.884;2023-12-04T03:14:26;-6.80;99.90
74822;DHT22;63353;48.702;8.884;2023-12-04T03:16:51;-6.80;99.90
74822;DHT22;63353;48.702;8.884;2023-12-04T03:19:17;-6.80;99.90
74822;DHT22;63353;48.702;8.884;2023-12-04T03:21:42;-6.90;99.90
74822;DHT22;63353;48.702;8.884;2023-12-04T03:24:08;-6.90;99.90
74822;DHT22;63353;48.702;8.884;2023-12-04T03:26:34;-6.90;99.90
74822;DHT22;63353;48.702;8.884;2023-12-04T03:29:00;-7.00;99.90
74822;DHT22;63353;48.702;8.884;2023-12-04T03:31:26;-6.90;99.90
74822;DHT22;63353;48.702;8.884;2023-12-04T03:33:51;-6.90;99.90
74822;DHT22;63353;48.702;8.884;2023-12-04T03:36:17;-6.80;99.90
74822;DHT22;63353;48.702;8.884;2023-12-04T03:38:42;-6.80;99.90
74822;DHT22;63353;48.702;8.884;2023-12-04T03:41:15;-6.90;99.90
74822;DHT22;63353;48.702;8.884;2023-12-04T03:43:41;-6.80;99.90
74822;DHT22;63353;48.702;8.884;2023-12-04T03:46:07;-6.80;99.90
74822;DHT22;63353;48.702;8.884;2023-12-04T03:48:33;-6.60;99.90
74822;DHT22;63353;48.702;8.884;2023-12-04T03:50:58;-6.40;99.90
74822;DHT22;63353;48.702;8.884;2023-12-04T03:53:25;-6.20;99.90
74822;DHT22;63353;48.702;8.884;2023-12-04T03:55:51;-6.10;99.90
74822;DHT22;63353;48.702;8.884;2023-12-04T03:58:17;-5.90;99.90
74822;DHT22;63353;48.702;8.884;2023-12-04T04:00:42;-5.90;99.90
74822;DHT22;63353;48.702;8.884;2023-12-04T04:03:09;-5.80;99.90
74822;DHT22;63353;48.702;8.884;2023-12-04T04:05:35;-5.70;99.90
74822;DHT22;63353;48.702;8.884;2023-12-04T04:08:01;-5.60;99.90
74822;DHT22;63353;48.702;8.884;2023-12-04T04:10:27;-5.50;99.90
74822;DHT22;63353;48.702;8.884;2023-12-04T04:12:52;-5.40;99.90
74822;DHT22;63353;48.702;8.884;2023-12-04T04:15:18;-5.30;99.90
74822;DHT22;63353;48.702;8.884;2023-12-04T04:17:43;-5.30;99.90
74822;DHT22;63353;48.702;8.884;2023-12-04T04:20:09;-5.30;99.90
74822;DHT22;63353;48.702;8.884;2023-12-04T04:22:37;-5.30;99.90
74822;DHT22;63353;48.702;8.884;2023-12-04T04:25:06;-5.40;99.90
74822;DHT22;63353;48.702;8.884;2023-12-04T04:27:31;-5.40;99.90
74822;DHT22;63353;48.702;8.884;2023-12-04T04:29:57;-5.40;99.90
74822;DHT22;63353;48.702;8.884;2023-12-04T04:32:23;-5.30;99.90
74822;DHT22;63353;48.702;8.884;2023-12-04T04:34:48;-5.30;99.90
74822;DHT22;63353;48.702;8.884;2023-12-04T04:37:14;-5.30;99.90
74822;DHT22;63353;48.702;8.884;2023-12-04T04:39:40;-5.10;99.90
74822;DHT22;63353;48.702;8.884;2023-12-04T04:42:06;-5.10;99.90
74822;DHT22;63353;48.702;8.884;2023-12-04T04:44:31;-5.10;99.90
74822;DHT22;63353;48.702;8.884;2023-12-04T04:46:57;-5.10;99.90
74822;DHT22;63353;48.702;8.884;2023-12-04T04:49:22;-5.10;99.90
74822;DHT22;63353;48.702;8.884;2023-12-04T04:51:48;-5.10;99.90
74822;DHT22;63353;48.702;8.884;2023-12-04T04:54:14;-5.10;99.90
74822;DHT22;63353;48.702;8.884;2023-12-04T04:56:39;-5.10;99.90
74822;DHT22;63353;48.702;8.884;2023-12-04T04:59:05;-5.20;99.90
74822;DHT22;63353;48.702;8.884;2023-12-04T05:01:31;-5.20;99.90
74822;DHT22;63353;48.702;8.884;2023-12-04T05:03:57;-5.30;99.90
74822;DHT22;63353;48.702;8.884;2023-12-04T05:06:22;-5.30;99.90
74822;DHT22;63353;48.702;8.884;2023-12-04T05:08:49;-5.30;99.90
74822;DHT22;63353;48.702;8.884;2023-12-04T05:11:17;-5.40;99.90
74822;DHT22;63353;48.702;8.884;2023-12-04T05:13:44;-5.50;99.90
74822;DHT22;63353;48.702;8.884;2023-12-04T05:16:10;-5.60;99.90
74822;DHT22;63353;48.702;8.884;2023-12-04T05:18:36;-5.60;99.90
74822;DHT22;63353;48.702;8.884;2023-12-04T05:21:01;-5.70;99.90
74822;DHT22;63353;48.702;8.884;2023-12-04T05:23:28;-5.80;99.90
74822;DHT22;63353;48.702;8.884;2023-12-04T05:25:53;-5.80;99.90
74822;DHT22;63353;48.702;8.884;2023-12-04T05:28:19;-5.80;99.90
74822;DHT22;63353;48.702;8.884;2023-12-04T05:30:45;-5.80;99.90
74822;DHT22;63353;48.702;8.884;2023-12-04T05:33:10;-5.90;99.90
74822;DHT22;63353;48.702;8.884;2023-12-04T05:35:36;-5.90;99.90
74822;DHT22;63353;48.702;8.884;2023-12-04T05:38:02;-6.00;99.90
74822;DHT22;63353;48.702;8.884;2023-12-04T05:40:28;-6.00;99.90
74822;DHT22;63353;48.702;8.884;2023-12-04T05:42:54;-6.00;99.90
74822;DHT22;63353;48.702;8.884;2023-12-04T05:45:19;-6.00;99.90
74822;DHT22;63353;48.702;8.884;2023-12-04T05:47:45;-6.00;99.90
74822;DHT22;63353;48.702;8.884;2023-12-04T05:50:11;-6.00;99.90
74822;DHT22;63353;48.702;8.884;2023-12-04T05:52:37;-6.10;99.90
74822;DHT22;63353;48.702;8.884;2023-12-04T05:55:02;-6.10;99.90
74822;DHT22;63353;48.702;8.884;2023-12-04T05:57:28;-6.10;99.90
74822;DHT22;63353;48.702;8.884;2023-12-04T05:59:54;-6.10;99.90
74822;DHT22;63353;48.702;8.884;2023-12-04T06:02:19;-6.10;99.90
74822;DHT22;63353;48.702;8.884;2023-12-04T06:04:45;-6.10;99.90
74822;DHT22;63353;48.702;8.884;2023-12-04T06:07:10;-6.10;99.90
74822;DHT22;63353;48.702;8.884;2023-12-04T06:09:36;-6.10;99.90
74822;DHT22;63353;48.702;8.884;2023-12-04T06:12:02;-6.00;99.90
74822;DHT22;63353;48.702;8.884;2023-12-04T06:14:33;-6.00;99.90
74822;DHT22;63353;48.702;8.884;2023-12-04T06:16:59;-6.00;99.90
74822;DHT22;63353;48.702;8.884;2023-12-04T06:19:25;-6.00;99.90
74822;DHT22;63353;48.702;8.884;2023-12-04T06:21:50;-5.90;99.90
74822;DHT22;63353;48.702;8.884;2023-12-04T06:24:18;-5.90;99.90
74822;DHT22;63353;48.702;8.884;2023-12-04T06:26:44;-5.90;99.90
74822;DHT22;63353;48.702;8.884;2023-12-04T06:29:12;-5.80;99.90
74822;DHT22;63353;48.702;8.884;2023-12-04T06:31:38;-5.80;99.90
74822;DHT22;63353;48.702;8.884;2023-12-04T06:34:03;-5.80;99.90
74822;DHT22;63353;48.702;8.884;2023-12-04T06:36:32;-5.80;99.90
74822;DHT22;63353;48.702;8.884;2023-12-04T06:39:00;-5.80;99.90
74822;DHT22;63353;48.702;8.884;2023-12-04T06:41:29;-5.80;99.90
74822;DHT22;63353;48.702;8.884;2023-12-04T06:43:55;-5.80;99.90
74822;DHT22;63353;48.702;8.884;2023-12-04T06:46:21;-5.80;99.90
74822;DHT22;63353;48.702;8.884;2023-12-04T06:48:51;-5.80;99.90
74822;DHT22;63353;48.702;8.884;2023-12-04T06:51:18;-5.80;99.90
74822;DHT22;63353;48.702;8.884;2023-12-04T06:53:43;-5.70;99.90
74822;DHT22;63353;48.702;8.884;2023-12-04T06:56:09;-5.70;99.90
74822;DHT22;63353;48.702;8.884;2023-12-04T06:58:35;-5.70;99.90
74822;DHT22;63353;48.702;8.884;2023-12-04T07:01:01;-5.70;99.90
74822;DHT22;63353;48.702;8.884;2023-12-04T07:03:27;-5.60;99.90
74822;DHT22;63353;48.702;8.884;2023-12-04T07:05:52;-5.60;99.90
74822;DHT22;63353;48.702;8.884;2023-12-04T07:08:18;-5.60;99.90
74822;DHT22;63353;48.702;8.884;2023-12-04T07:10:44;-5.60;99.90
74822;DHT22;63353;48.702;8.884;2023-12-04T07:13:09;-5.60;99.90
74822;DHT22;63353;48.702;8.884;2023-12-04T07:15:35;-5.50;99.90
74822;DHT22;63353;48.702;8.884;2023-12-04T07:18:01;-5.50;99.90
74822;DHT22;63353;48.702;8.884;2023-12-04T07:20:26;-5.50;99.90
74822;DHT22;63353;48.702;8.884;2023-12-04T07:22:52;-5.50;99.90
74822;DHT22;63353;48.702;8.884;2023-12-04T07:25:17;-5.40;99.90
74822;DHT22;63353;48.702;8.884;2023-12-04T07:27:43;-5.40;99.90
74822;DHT22;63353;48.702;8.884;2023-12-04T07:30:09;-5.30;99.90
74822;DHT22;63353;48.702;8.884;2023-12-04T07:32:35;-5.30;99.90
74822;DHT22;63353;48.702;8.884;2023-12-04T07:35:00;-5.20;99.90
74822;DHT22;63353;48.702;8.884;2023-12-04T07:37:26;-5.20;99.90
74822;DHT22;63353;48.702;8.884;2023-12-04T07:39:52;-5.20;99.90
74822;DHT22;63353;48.702;8.884;2023-12-04T07:42:17;-5.20;99.90
74822;DHT22;63353;48.702;8.884;2023-12-04T07:44:43;-5.10;99.90
74822;DHT22;63353;48.702;8.884;2023-12-04T07:47:09;-5.10;99.90
74822;DHT22;63353;48.702;8.884;2023-12-04T07:49:34;-5.00;99.90
74822;DHT22;63353;48.702;8.884;2023-12-04T07:52:00;-4.90;99.90
74822;DHT22;63353;48.702;8.884;2023-12-04T07:54:25;-4.80;99.90
74822;DHT22;63353;48.702;8.884;2023-12-04T07:56:52;-4.70;99.90
74822;DHT22;63353;48.702;8.884;2023-12-04T07:59:18;-4.60;99.90
74822;DHT22;63353;48.702;8.884;2023-12-04T08:01:44;-4.60;99.90
74822;DHT22;63353;48.702;8.884;2023-12-04T08:04:10;-4.50;99.90
74822;DHT22;63353;48.702;8.884;2023-12-04T08:06:36;-4.40;99.90
74822;DHT22;63353;48.702;8.884;2023-12-04T08:09:02;-4.40;99.90
74822;DHT22;63353;48.702;8.884;2023-12-04T08:11:28;-4.40;99.90
74822;DHT22;63353;48.702;8.884;2023-12-04T08:13:53;-4.30;99.90
74822;DHT22;63353;48.702;8.884;2023-12-04T08:16:19;-4.30;99.90
74822;DHT22;63353;48.702;8.884;2023-12-04T08:18:46;-4.20;99.90
74822;DHT22;63353;48.702;8.884;2023-12-04T08:21:11;-4.10;99.90
74822;DHT22;63353;48.702;8.884;2023-12-04T08:23:37;-4.00;99.90
74822;DHT22;63353;48.702;8.884;2023-12-04T08:26:03;-4.00;99.90
74822;DHT22;63353;48.702;8.884;2023-12-04T08:28:29;-4.00;99.90
74822;DHT22;63353;48.702;8.884;2023-12-04T08:30:54;-4.00;99.90
74822;DHT22;63353;48.702;8.884;2023-12-04T08:33:20;-3.80;99.90
74822;DHT22;63353;48.702;8.884;2023-12-04T08:35:46;-3.70;99.90
74822;DHT22;63353;48.702;8.884;2023-12-04T08:38:12;-3.60;99.90
74822;DHT22;63353;48.702;8.884;2023-12-04T08:40:38;-3.60;99.90
74822;DHT22;63353;48.702;8.884;2023-12-04T08:43:05;-3.40;99.90
74822;DHT22;63353;48.702;8.884;2023-12-04T08:45:30;-3.40;99.90
74822;DHT22;63353;48.702;8.884;2023-12-04T08:47:56;-3.40;99.90
74822;DHT22;63353;48.702;8.884;2023-12-04T08:50:22;-3.30;99.90
74822;DHT22;63353;48.702;8.884;2023-12-04T08:52:47;-3.20;99.90
74822;DHT22;63353;48.702;8.884;2023-12-04T08:55:13;-3.10;99.90
74822;DHT22;63353;48.702;8.884;2023-12-04T08:57:39;-3.20;99.90
74822;DHT22;63353;48.702;8.884;2023-12-04T09:00:05;-3.10;99.90
74822;DHT22;63353;48.702;8.884;2023-12-04T09:02:31;-3.10;99.90
74822;DHT22;63353;48.702;8.884;2023-12-04T09:04:56;-3.20;99.90
74822;DHT22;63353;48.702;8.884;2023-12-04T09:07:22;-3.20;99.90
74822;DHT22;63353;48.702;8.884;2023-12-04T09:09:48;-3.20;99.90
74822;DHT22;63353;48.702;8.884;2023-12-04T09:12:15;-3.00;99.90
74822;DHT22;63353;48.702;8.884;2023-12-04T09:14:40;-2.80;99.90
74822;DHT22;63353;48.702;8.884;2023-12-04T09:17:06;-2.80;99.90
74822;DHT22;63353;48.702;8.884;2023-12-04T09:19:32;-2.60;99.90
74822;DHT22;63353;48.702;8.884;2023-12-04T09:21:58;-2.50;99.90
74822;DHT22;63353;48.702;8.884;2023-12-04T09:24:23;-2.40;99.90
74822;DHT22;63353;48.702;8.884;2023-12-04T09:26:49;-2.20;99.90
74822;DHT22;63353;48.702;8.884;2023-12-04T09:29:15;-2.20;99.90
74822;DHT22;63353;48.702;8.884;2023-12-04T09:31:41;-2.10;99.90
74822;DHT22;63353;48.702;8.884;2023-12-04T09:34:07;-2.10;99.90
74822;DHT22;63353;48.702;8.884;2023-12-04T09:36:34;-2.20;99.90
74822;DHT22;63353;48.702;8.884;2023-12-04T09:39:00;-2.10;99.90
74822;DHT22;63353;48.702;8.884;2023-12-04T09:41:26;-2.00;99.90
74822;DHT22;63353;48.702;8.884;2023-12-04T09:43:52;-2.00;99.90
74822;DHT22;63353;48.702;8.884;2023-12-04T09:46:18;-2.00;99.90
74822;DHT22;63353;48.702;8.884;2023-12-04T09:48:44;-2.10;99.90
74822;DHT22;63353;48.702;8.884;2023-12-04T09:51:10;-2.10;99.90
74822;DHT22;63353;48.702;8.884;2023-12-04T09:53:36;-2.00;99.90
74822;DHT22;63353;48.702;8.884;2023-12-04T09:56:07;-2.00;99.90
74822;DHT22;63353;48.702;8.884;2023-12-04T09:58:33;-1.90;99.90
74822;DHT22;63353;48.702;8.884;2023-12-04T10:01:03;-1.70;99.90
74822;DHT22;63353;48.702;8.884;2023-12-04T10:03:29;-1.70;99.90
74822;DHT22;63353;48.702;8.884;2023-12-04T10:05:55;-1.80;99.90
74822;DHT22;63353;48.702;8.884;2023-12-04T10:08:21;-1.90;99.90
74822;DHT22;63353;48.702;8.884;2023-12-04T10:10:47;-1.80;99.90
74822;DHT22;63353;48.702;8.884;2023-12-04T10:13:12;-1.70;99.90
74822;DHT22;63353;48.702;8.884;2023-12-04T10:15:48;-1.60;99.90
74822;DHT22;63353;48.702;8.884;2023-12-04T10:18:32;-1.40;99.90
74822;DHT22;63353;48.702;8.884;2023-12-04T10:20:59;-1.40;99.90
74822;DHT22;63353;48.702;8.884;2023-12-04T10:23:43;-1.30;99.90
74822;DHT22;63353;48.702;8.884;2023-12-04T10:26:08;-1.30;99.90
74822;DHT22;63353;48.702;8.884;2023-12-04T10:28:37;-1.20;99.90
74822;DHT22;63353;48.702;8.884;2023-12-04T10:31:02;-0.80;99.90
74822;DHT22;63353;48.702;8.884;2023-12-04T10:33:32;-0.80;99.90
74822;DHT22;63353;48.702;8.884;2023-12-04T10:35:58;-0.60;99.90
74822;DHT22;63353;48.702;8.884;2023-12-04T10:38:24;-0.60;99.90
74822;DHT22;63353;48.702;8.884;2023-12-04T10:40:52;-0.40;99.90
74822;DHT22;63353;48.702;8.884;2023-12-04T10:43:19;-0.40;99.90
74822;DHT22;63353;48.702;8.884;2023-12-04T10:45:48;-0.20;99.90
74822;DHT22;63353;48.702;8.884;2023-12-04T10:48:16;0.00;99.90
74822;DHT22;63353;48.702;8.884;2023-12-04T10:50:47;0.10;99.90
74822;DHT22;63353;48.702;8.884;2023-12-04T10:53:14;0.00;99.90
74822;DHT22;63353;48.702;8.884;2023-12-04T10:55:40;-0.10;99.90
74822;DHT22;63353;48.702;8.884;2023-12-04T10:58:07;-0.20;99.90
74822;DHT22;63353;48.702;8.884;2023-12-04T11:00:35;-0.30;99.90
74822;DHT22;63353;48.702;8.884;2023-12-04T11:03:13;-0.30;99.90
74822;DHT22;63353;48.702;8.884;2023-12-04T11:05:40;-0.40;99.90
74822;DHT22;63353;48.702;8.884;2023-12-04T11:08:11;-0.40;99.90
74822;DHT22;63353;48.702;8.884;2023-12-04T11:10:54;-0.40;99.90
74822;DHT22;63353;48.702;8.884;2023-12-04T11:13:26;-0.50;99.90
74822;DHT22;63353;48.702;8.884;2023-12-04T11:15:59;-0.60;99.90
74822;DHT22;63353;48.702;8.884;2023-12-04T11:18:26;-0.60;99.90
74822;DHT22;63353;48.702;8.884;2023-12-04T11:21:08;-0.60;99.90
74822;DHT22;63353;48.702;8.884;2023-12-04T11:23:35;-0.50;99.90
74822;DHT22;63353;48.702;8.884;2023-12-04T11:26:02;-0.60;99.90
74822;DHT22;63353;48.702;8.884;2023-12-04T11:28:30;-0.60;99.90
74822;DHT22;63353;48.702;8.884;2023-12-04T11:30:57;-0.50;99.90
74822;DHT22;63353;48.702;8.884;2023-12-04T11:33:24;-0.50;99.90
74822;DHT22;63353;48.702;8.884;2023-12-04T11:35:50;-0.50;99.90
74822;DHT22;63353;48.702;8.884;2023-12-04T11:38:19;-0.50;99.90
74822;DHT22;63353;48.702;8.884;2023-12-04T11:40:46;-0.40;99.90
74822;DHT22;63353;48.702;8.884;2023-12-04T11:43:25;-0.40;99.90
74822;DHT22;63353;48.702;8.884;2023-12-04T11:45:51;-0.20;99.90
74822;DHT22;63353;48.702;8.884;2023-12-04T11:48:22;-0.10;99.90
74822;DHT22;63353;48.702;8.884;2023-12-04T11:50:49;0.10;99.90
74822;DHT22;63353;48.702;8.884;2023-12-04T11:53:16;0.10;99.90
74822;DHT22;63353;48.702;8.884;2023-12-04T11:55:41;0.20;99.90
74822;DHT22;63353;48.702;8.884;2023-12-04T11:58:11;0.30;99.90
74822;DHT22;63353;48.702;8.884;2023-12-04T12:00:37;0.30;99.90
74822;DHT22;63353;48.702;8.884;2023-12-04T12:03:07;0.40;99.90
74822;DHT22;63353;48.702;8.884;2023-12-04T12:05:35;0.50;99.90
74822;DHT22;63353;48.702;8.884;2023-12-04T12:08:05;0.40;99.90
74822;DHT22;63353;48.702;8.884;2023-12-04T12:10:32;0.30;99.90
74822;DHT22;63353;48.702;8.884;2023-12-04T12:12:59;0.00;99.90
74822;DHT22;63353;48.702;8.884;2023-12-04T12:15:25;0.00;99.90
74822;DHT22;63353;48.702;8.884;2023-12-04T12:17:51;0.00;99.90
74822;DHT22;63353;48.702;8.884;2023-12-04T12:20:19;-0.10;99.90
74822;DHT22;63353;48.702;8.884;2023-12-04T12:22:48;0.00;99.90
74822;DHT22;63353;48.702;8.884;2023-12-04T12:25:15;0.00;99.90
74822;DHT22;63353;48.702;8.884;2023-12-04T12:27:40;0.10;99.90
74822;DHT22;63353;48.702;8.884;2023-12-04T12:30:07;0.20;99.90
74822;DHT22;63353;48.702;8.884;2023-12-04T12:32:33;0.30;99.90
74822;DHT22;63353;48.702;8.884;2023-12-04T12:34:59;0.20;99.90
74822;DHT22;63353;48.702;8.884;2023-12-04T12:37:25;0.30;99.90
74822;DHT22;63353;48.702;8.884;2023-12-04T12:39:52;0.10;99.90
74822;DHT22;63353;48.702;8.884;2023-12-04T12:42:22;0.10;99.90
74822;DHT22;63353;48.702;8.884;2023-12-04T12:44:48;0.30;99.90
74822;DHT22;63353;48.702;8.884;2023-12-04T12:47:15;0.60;99.90
74822;DHT22;63353;48.702;8.884;2023-12-04T12:49:41;0.80;99.90
74822;DHT22;63353;48.702;8.884;2023-12-04T12:52:06;1.00;99.90
74822;DHT22;63353;48.702;8.884;2023-12-04T12:54:35;1.10;99.90
74822;DHT22;63353;48.702;8.884;2023-12-04T12:57:01;1.20;99.90
74822;DHT22;63353;48.702;8.884;2023-12-04T12:59:27;1.30;99.90
74822;DHT22;63353;48.702;8.884;2023-12-04T13:01:53;1.30;99.90
74822;DHT22;63353;48.702;8.884;2023-12-04T13:04:19;1.30;99.90
74822;DHT22;63353;48.702;8.884;2023-12-04T13:06:45;1.30;99.90
74822;DHT22;63353;48.702;8.884;2023-12-04T13:09:12;1.20;99.90
74822;DHT22;63353;48.702;8.884;2023-12-04T13:11:46;1.20;99.90
74822;DHT22;63353;48.702;8.884;2023-12-04T13:14:13;1.20;99.90
74822;DHT22;63353;48.702;8.884;2023-12-04T13:16:39;1.10;99.90
74822;DHT22;63353;48.702;8.884;2023-12-04T13:19:05;1.00;99.90
74822;DHT22;63353;48.702;8.884;2023-12-04T13:21:30;0.70;99.90
74822;DHT22;63353;48.702;8.884;2023-12-04T13:23:57;0.60;99.90
74822;DHT22;63353;48.702;8.884;2023-12-04T13:26:22;0.70;99.90
74822;DHT22;63353;48.702;8.884;2023-12-04T13:28:49;0.60;99.90
74822;DHT22;63353;48.702;8.884;2023-12-04T13:31:15;0.70;99.90
74822;DHT22;63353;48.702;8.884;2023-12-04T13:33:40;0.80;99.90
74822;DHT22;63353;48.702;8.884;2023-12-04T13:36:08;0.90;99.90
74822;DHT22;63353;48.702;8.884;2023-12-04T13:38:34;0.80;99.90
74822;DHT22;63353;48.702;8.884;2023-12-04T13:41:01;0.90;99.90
74822;DHT22;63353;48.702;8.884;2023-12-04T13:43:34;0.70;99.90
74822;DHT22;63353;48.702;8.884;2023-12-04T13:46:19;0.50;99.90
74822;DHT22;63353;48.702;8.884;2023-12-04T13:48:44;0.50;99.90
74822;DHT22;63353;48.702;8.884;2023-12-04T13:51:11;0.40;99.90
74822;DHT22;63353;48.702;8.884;2023-12-04T13:53:37;0.50;99.90
74822;DHT22;63353;48.702;8.884;2023-12-04T13:56:12;0.40;99.90
74822;DHT22;63353;48.702;8.884;2023-12-04T13:58:56;0.50;99.90
74822;DHT22;63353;48.702;8.884;2023-12-04T14:01:25;0.70;99.90
74822;DHT22;63353;48.702;8.884;2023-12-04T14:03:55;0.80;99.90
74822;DHT22;63353;48.702;8.884;2023-12-04T14:06:28;0.80;99.90
74822;DHT22;63353;48.702;8.884;2023-12-04T14:08:53;0.80;99.90
74822;DHT22;63353;48.702;8.884;2023-12-04T14:11:19;0.70;99.90
74822;DHT22;63353;48.702;8.884;2023-12-04T14:13:45;0.80;99.90
74822;DHT22;63353;48.702;8.884;2023-12-04T14:16:10;0.90;99.90
74822;DHT22;63353;48.702;8.884;2023-12-04T14:18:36;0.90;99.90
74822;DHT22;63353;48.702;8.884;2023-12-04T14:21:02;0.90;99.90
74822;DHT22;63353;48.702;8.884;2023-12-04T14:23:28;0.80;99.90
74822;DHT22;63353;48.702;8.884;2023-12-04T14:25:54;0.80;99.90
74822;DHT22;63353;48.702;8.884;2023-12-04T14:28:19;0.70;99.90
74822;DHT22;63353;48.702;8.884;2023-12-04T14:30:47;0.80;99.90
74822;DHT22;63353;48.702;8.884;2023-12-04T14:33:12;0.80;99.90
74822;DHT22;63353;48.702;8.884;2023-12-04T14:35:38;0.90;99.90
74822;DHT22;63353;48.702;8.884;2023-12-04T14:38:04;0.90;99.90
74822;DHT22;63353;48.702;8.884;2023-12-04T14:40:30;0.90;99.90
74822;DHT22;63353;48.702;8.884;2023-12-04T14:42:56;0.90;99.90
74822;DHT22;63353;48.702;8.884;2023-12-04T14:45:22;0.90;99.90
74822;DHT22;63353;48.702;8.884;2023-12-04T14:47:47;0.90;99.90
74822;DHT22;63353;48.702;8.884;2023-12-04T14:50:15;0.80;99.90
74822;DHT22;63353;48.702;8.884;2023-12-04T14:52:41;0.70;99.90
74822;DHT22;63353;48.702;8.884;2023-12-04T14:55:14;0.60;99.90
74822;DHT22;63353;48.702;8.884;2023-12-04T14:57:50;0.60;99.90
74822;DHT22;63353;48.702;8.884;2023-12-04T15:00:35;0.50;99.90
74822;DHT22;63353;48.702;8.884;2023-12-04T15:03:19;0.40;99.90
74822;DHT22;63353;48.702;8.884;2023-12-04T15:06:03;0.30;99.90
74822;DHT22;63353;48.702;8.884;2023-12-04T15:08:38;0.20;99.90
74822;DHT22;63353;48.702;8.884;2023-12-04T15:11:22;0.20;99.90
74822;DHT22;63353;48.702;8.884;2023-12-04T15:14:10;0.20;99.90
74822;DHT22;63353;48.702;8.884;2023-12-04T15:16:54;0.20;99.90
74822;DHT22;63353;48.702;8.884;2023-12-04T15:19:29;0.10;99.90
74822;DHT22;63353;48.702;8.884;2023-12-04T15:22:17;0.10;99.90
74822;DHT22;63353;48.702;8.884;2023-12-04T15:24:43;0.10;99.90
74822;DHT22;63353;48.702;8.884;2023-12-04T15:27:09;0.10;99.90
74822;DHT22;63353;48.702;8.884;2023-12-04T15:29:34;0.10;99.90
74822;DHT22;63353;48.702;8.884;2023-12-04T15:32:00;0.10;99.90
74822;DHT22;63353;48.702;8.884;2023-12-04T15:34:25;0.20;99.90